Time;durP1;ratioP1;P1;durP2;ratioP2;P2;SDS_P1;SDS_P2;PMS_P1;PMS_P2;Temp;Humidity;BMP_temperature;BMP_pressure;BME280_temperature;BME280_humidity;BME280_pressure;Samples;Min_cycle;Max_cycle;Signal;HPM_P1;HPM_P2
2022/01/08 00:01:55;;;;;;;14.50;6.40;;;1.20;99.90;;;;;;5033459;28;20091;-66
2022/01/08 00:04:20;;;;;;;14.45;6.25;;;1.10;99.90;;;;;;5026960;28;20652;-65
2022/01/08 00:06:46;;;;;;;12.63;5.88;;;1.10;99.90;;;;;;5043224;28;20593;-67
2022/01/08 00:09:12;;;;;;;11.48;5.88;;;1.10;99.90;;;;;;5031556;28;20064;-66
2022/01/08 00:11:41;;;;;;;13.75;5.55;;;1.20;99.90;;;;;;5038931;28;20045;-66
2022/01/08 00:14:07;;;;;;;11.80;4.72;;;1.20;99.90;;;;;;5021382;28;20390;-66
2022/01/08 00:16:34;;;;;;;16.20;5.65;;;1.20;99.90;;;;;;5035092;28;20065;-66
2022/01/08 00:18:59;;;;;;;11.95;5.25;;;1.20;99.90;;;;;;5046262;28;20412;-67
2022/01/08 00:21:25;;;;;;;10.02;5.10;;;1.20;99.90;;;;;;5040137;28;20037;-67
2022/01/08 00:23:50;;;;;;;12.07;5.45;;;1.20;99.90;;;;;;5012573;28;20039;-65
2022/01/08 00:26:16;;;;;;;13.95;5.75;;;1.10;99.90;;;;;;5039349;28;20040;-65
2022/01/08 00:28:42;;;;;;;10.18;5.05;;;1.10;99.90;;;;;;5033385;28;20037;-66
2022/01/08 00:31:10;;;;;;;12.63;5.68;;;1.00;99.90;;;;;;5043654;28;20045;-66
2022/01/08 00:33:37;;;;;;;14.88;6.55;;;1.00;99.90;;;;;;5033882;28;20040;-65
2022/01/08 00:36:04;;;;;;;12.80;5.78;;;0.90;99.90;;;;;;5031742;28;20409;-66
2022/01/08 00:38:30;;;;;;;10.52;5.95;;;1.00;99.90;;;;;;5041796;28;20052;-65
2022/01/08 00:40:55;;;;;;;11.00;6.03;;;0.90;99.90;;;;;;5036816;28;20045;-66
2022/01/08 00:43:21;;;;;;;11.75;5.93;;;1.00;99.90;;;;;;5031543;28;20042;-66
2022/01/08 00:45:47;;;;;;;15.15;6.65;;;0.90;99.90;;;;;;5035979;28;20032;-66
2022/01/08 00:48:13;;;;;;;12.98;6.82;;;1.00;99.90;;;;;;5046864;28;20077;-66
2022/01/08 00:50:38;;;;;;;12.10;5.38;;;1.00;99.90;;;;;;5028595;28;20041;-66
2022/01/08 00:53:04;;;;;;;13.20;6.75;;;1.00;99.90;;;;;;5043576;28;20041;-65
2022/01/08 00:55:29;;;;;;;17.30;7.18;;;1.00;99.90;;;;;;5034001;28;20033;-65
2022/01/08 00:57:55;;;;;;;15.55;6.88;;;1.10;99.90;;;;;;5044772;28;20049;-65
2022/01/08 01:00:21;;;;;;;10.85;6.10;;;1.10;99.90;;;;;;5041811;28;20072;-64
2022/01/08 01:02:46;;;;;;;12.32;5.70;;;1.10;99.90;;;;;;5039984;28;20037;-65
2022/01/08 01:05:12;;;;;;;13.25;6.20;;;1.00;99.90;;;;;;5026804;28;20552;-65
2022/01/08 01:07:38;;;;;;;13.82;5.80;;;1.00;99.90;;;;;;5037318;28;20175;-65
2022/01/08 01:10:05;;;;;;;11.65;5.45;;;1.00;99.90;;;;;;5021839;28;20029;-66
2022/01/08 01:12:31;;;;;;;11.15;5.95;;;1.00;99.90;;;;;;5032514;28;20131;-66
2022/01/08 01:14:57;;;;;;;13.93;5.63;;;1.00;99.90;;;;;;5025822;28;20112;-66
2022/01/08 01:17:23;;;;;;;14.15;5.43;;;1.00;99.90;;;;;;5043569;28;20578;-66
2022/01/08 01:19:49;;;;;;;9.43;4.68;;;1.00;99.90;;;;;;5026609;28;20625;-64
2022/01/08 01:22:18;;;;;;;11.18;4.78;;;1.00;99.90;;;;;;5040368;28;20064;-65
2022/01/08 01:24:44;;;;;;;12.20;5.80;;;1.00;99.90;;;;;;5033212;28;20033;-69
2022/01/08 01:48:16;;;;;;;10.88;5.68;;;1.10;99.90;;;;;;5049797;28;20044;-65
2022/01/08 01:50:42;;;;;;;13.30;6.55;;;1.20;99.90;;;;;;5036894;28;20037;-65
2022/01/08 01:53:07;;;;;;;15.32;7.13;;;1.20;99.90;;;;;;5041305;28;20532;-66
2022/01/08 01:55:34;;;;;;;20.77;8.20;;;1.20;99.90;;;;;;5033562;28;20079;-65
2022/01/08 01:58:00;;;;;;;15.48;7.88;;;1.20;99.90;;;;;;5046996;28;20060;-66
2022/01/08 02:00:26;;;;;;;15.13;7.82;;;1.10;99.90;;;;;;5022701;28;20476;-65
2022/01/08 02:02:51;;;;;;;19.17;8.93;;;1.20;99.90;;;;;;5040071;28;20049;-65
2022/01/08 02:05:17;;;;;;;20.38;8.50;;;1.10;99.90;;;;;;5048385;28;20132;-66
2022/01/08 02:07:43;;;;;;;21.30;10.18;;;1.20;99.90;;;;;;5045813;28;20049;-66
2022/01/08 02:10:09;;;;;;;23.83;9.68;;;1.20;99.90;;;;;;5045677;28;20037;-66
2022/01/08 02:12:35;;;;;;;19.77;8.90;;;1.20;99.90;;;;;;5026656;28;20443;-67
2022/01/08 02:15:01;;;;;;;25.00;11.70;;;1.20;99.90;;;;;;5031253;28;20041;-66
2022/01/08 02:17:27;;;;;;;19.02;10.15;;;1.30;99.90;;;;;;5029345;28;20045;-66
2022/01/08 02:19:56;;;;;;;24.23;10.27;;;1.30;99.90;;;;;;5028729;28;20133;-65
2022/01/08 02:22:22;;;;;;;22.48;10.30;;;1.30;99.90;;;;;;5040246;28;20040;-64
2022/01/08 02:24:48;;;;;;;20.77;10.85;;;1.30;99.90;;;;;;5044144;28;20041;-63
2022/01/08 02:27:15;;;;;;;23.00;10.48;;;1.40;99.90;;;;;;5047276;28;20048;-64
2022/01/08 02:29:43;;;;;;;21.25;10.05;;;1.30;99.90;;;;;;5048022;28;20033;-64
2022/01/08 02:32:15;;;;;;;21.60;9.73;;;1.30;99.90;;;;;;5049142;28;20091;-66
2022/01/08 02:34:41;;;;;;;21.48;10.02;;;1.20;99.90;;;;;;5042930;28;20037;-65
2022/01/08 02:37:08;;;;;;;18.88;9.13;;;1.20;99.90;;;;;;5029367;28;20083;-66
2022/01/08 02:39:40;;;;;;;23.40;9.48;;;1.20;99.90;;;;;;5047150;28;20559;-66
2022/01/08 02:42:08;;;;;;;22.08;10.45;;;1.10;99.90;;;;;;5048131;28;20045;-71
2022/01/08 02:44:33;;;;;;;23.63;10.80;;;1.10;99.90;;;;;;5043572;28;20116;-65
2022/01/08 02:47:00;;;;;;;22.27;10.07;;;1.00;99.90;;;;;;5040173;28;20116;-66
2022/01/08 02:49:26;;;;;;;24.20;10.70;;;1.00;99.90;;;;;;5026127;28;20102;-66
2022/01/08 02:51:53;;;;;;;23.60;10.23;;;1.00;99.90;;;;;;5039390;28;20032;-66
2022/01/08 02:54:19;;;;;;;20.20;9.85;;;1.00;99.90;;;;;;5028631;28;20133;-65
2022/01/08 02:56:48;;;;;;;18.55;10.07;;;1.00;99.90;;;;;;5043013;28;20206;-65
2022/01/08 02:59:14;;;;;;;17.55;9.50;;;1.00;99.90;;;;;;5036482;28;20645;-66
2022/01/08 03:01:40;;;;;;;21.30;10.77;;;0.90;99.90;;;;;;5034715;28;20060;-66
2022/01/08 03:04:06;;;;;;;19.38;9.63;;;0.90;99.90;;;;;;5020798;28;20116;-65
2022/01/08 03:06:32;;;;;;;22.70;9.13;;;0.90;99.90;;;;;;5030442;28;20048;-66
2022/01/08 03:08:58;;;;;;;23.58;10.13;;;0.80;99.90;;;;;;5041135;28;20068;-65
2022/01/08 03:11:24;;;;;;;18.08;9.25;;;0.80;99.90;;;;;;5047913;28;20635;-66
2022/01/08 03:13:49;;;;;;;21.88;9.52;;;0.80;99.90;;;;;;5037333;28;20052;-65
2022/01/08 03:16:15;;;;;;;23.58;9.82;;;0.80;99.90;;;;;;5037709;28;20615;-67
2022/01/08 03:18:41;;;;;;;19.83;9.15;;;0.70;99.90;;;;;;5021413;28;20053;-66
2022/01/08 03:21:15;;;;;;;24.52;10.35;;;0.70;99.90;;;;;;5038529;28;20052;-66
2022/01/08 03:23:48;;;;;;;25.50;9.85;;;0.70;99.90;;;;;;5024649;28;20171;-66
2022/01/08 03:26:15;;;;;;;21.08;9.90;;;0.70;99.90;;;;;;5039945;28;20045;-66
2022/01/08 03:28:41;;;;;;;19.13;9.98;;;0.70;99.90;;;;;;5031362;28;20045;-67
2022/01/08 03:31:07;;;;;;;20.08;9.75;;;0.80;99.90;;;;;;5028237;28;20045;-66
2022/01/08 03:33:32;;;;;;;22.17;9.32;;;0.70;99.90;;;;;;5027783;28;20048;-66
2022/01/08 03:35:58;;;;;;;23.08;10.30;;;0.70;99.90;;;;;;5035727;28;20041;-65
2022/01/08 03:38:24;;;;;;;24.90;10.43;;;0.60;99.90;;;;;;5032526;28;20529;-68
2022/01/08 03:40:49;;;;;;;24.63;9.93;;;0.60;99.90;;;;;;5034079;28;20045;-66
2022/01/08 03:43:15;;;;;;;20.35;10.07;;;0.60;99.90;;;;;;5035274;28;20602;-65
2022/01/08 03:45:40;;;;;;;20.90;9.77;;;0.60;99.90;;;;;;5043808;28;20041;-67
2022/01/08 03:50:50;;;;;;;17.13;9.10;;;0.60;99.90;;;;;;5030881;28;20087;-66
2022/01/08 03:53:15;;;;;;;20.60;9.63;;;0.50;99.90;;;;;;5029436;28;20559;-68
2022/01/08 03:55:41;;;;;;;17.60;8.88;;;0.60;99.90;;;;;;5039843;28;20046;-67
2022/01/08 03:58:07;;;;;;;20.35;9.45;;;0.60;99.90;;;;;;5038290;28;20032;-67
2022/01/08 04:00:32;;;;;;;17.45;8.95;;;0.60;99.90;;;;;;5048890;28;20106;-66
2022/01/08 04:02:58;;;;;;;19.10;8.15;;;0.60;99.90;;;;;;5036410;28;20045;-65
2022/01/08 04:05:23;;;;;;;24.30;9.52;;;0.50;99.90;;;;;;5041006;28;20075;-66
2022/01/08 04:07:49;;;;;;;18.88;8.93;;;0.60;99.90;;;;;;5036982;28;20035;-66
2022/01/08 04:10:14;;;;;;;18.30;8.18;;;0.70;99.90;;;;;;5032133;28;20041;-66
2022/01/08 04:12:48;;;;;;;17.83;8.05;;;0.60;99.90;;;;;;5048599;28;20094;-66
2022/01/08 04:17:53;;;;;;;22.48;7.90;;;0.70;99.90;;;;;;5030130;28;20144;-66
2022/01/08 04:20:20;;;;;;;20.58;7.70;;;0.70;99.90;;;;;;5039175;28;20037;-66
2022/01/08 04:22:48;;;;;;;15.35;6.82;;;0.70;99.90;;;;;;5049740;28;20037;-67
2022/01/08 04:25:15;;;;;;;13.35;6.85;;;0.70;99.90;;;;;;5030218;28;20519;-67
2022/01/08 04:27:41;;;;;;;18.17;7.10;;;0.60;99.90;;;;;;5016449;28;20080;-66
2022/01/08 04:30:07;;;;;;;14.13;6.60;;;0.60;99.90;;;;;;5017254;28;20115;-67
2022/01/08 04:32:33;;;;;;;14.73;6.80;;;0.70;99.90;;;;;;5031245;28;20041;-66
2022/01/08 04:34:58;;;;;;;15.75;6.38;;;0.70;99.90;;;;;;5044729;28;20045;-65
2022/01/08 04:37:24;;;;;;;14.77;6.20;;;0.60;99.90;;;;;;5040425;28;20489;-67
2022/01/08 04:39:50;;;;;;;14.25;6.68;;;0.70;99.90;;;;;;5043608;28;20484;-67
2022/01/08 04:42:15;;;;;;;17.45;5.72;;;0.70;99.90;;;;;;5031390;28;20103;-67
2022/01/08 04:44:41;;;;;;;13.13;5.97;;;0.60;99.90;;;;;;5045506;28;20049;-66
2022/01/08 04:47:06;;;;;;;12.27;5.38;;;0.70;99.90;;;;;;5037370;28;20636;-66
2022/01/08 04:49:32;;;;;;;23.10;6.30;;;0.70;99.90;;;;;;5015409;28;20035;-66
2022/01/08 04:51:58;;;;;;;15.68;5.80;;;0.70;99.90;;;;;;5033066;28;20098;-67
2022/01/08 04:54:24;;;;;;;16.90;7.32;;;0.80;99.90;;;;;;5044779;28;20045;-66
2022/01/08 04:56:49;;;;;;;17.88;5.75;;;0.80;99.90;;;;;;5046899;28;20041;-66
2022/01/08 04:59:16;;;;;;;16.63;5.90;;;0.80;99.90;;;;;;5039615;28;20041;-67
2022/01/08 05:01:42;;;;;;;15.57;5.78;;;0.80;99.90;;;;;;5044108;28;20120;-65
2022/01/08 05:04:08;;;;;;;12.02;5.72;;;0.70;99.90;;;;;;5047776;28;20429;-66
2022/01/08 05:06:34;;;;;;;16.55;5.90;;;0.90;99.90;;;;;;5033614;28;20120;-66
2022/01/08 05:08:59;;;;;;;13.30;5.63;;;0.90;99.90;;;;;;5031124;28;20388;-67
2022/01/08 05:11:27;;;;;;;16.45;6.15;;;0.80;99.90;;;;;;5015282;28;20381;-67
2022/01/08 05:13:53;;;;;;;16.33;5.85;;;0.70;99.90;;;;;;5031202;28;20049;-66
2022/01/08 05:16:19;;;;;;;12.75;6.10;;;0.80;99.90;;;;;;5045498;28;20071;-66
2022/01/08 05:18:45;;;;;;;16.02;6.72;;;0.80;99.90;;;;;;5039935;28;20065;-66
2022/01/08 05:21:19;;;;;;;15.25;6.43;;;0.70;99.90;;;;;;5049318;28;20068;-66
2022/01/08 05:23:45;;;;;;;17.77;7.03;;;0.80;99.90;;;;;;5050060;28;20045;-67
2022/01/08 05:26:10;;;;;;;15.52;7.60;;;0.80;99.90;;;;;;5039773;28;20425;-66
2022/01/08 05:28:36;;;;;;;16.15;6.85;;;0.70;99.90;;;;;;5039197;28;20039;-66
2022/01/08 05:31:02;;;;;;;16.38;7.57;;;0.70;99.90;;;;;;5032527;28;20148;-66
2022/01/08 05:33:27;;;;;;;17.88;6.95;;;0.70;99.90;;;;;;5043076;28;20044;-66
2022/01/08 05:35:53;;;;;;;14.68;6.65;;;0.80;99.90;;;;;;5049321;28;20757;-67
2022/01/08 05:38:18;;;;;;;17.55;6.85;;;0.80;99.90;;;;;;5037793;28;20036;-66
2022/01/08 05:40:44;;;;;;;22.55;8.15;;;0.70;99.90;;;;;;5037639;28;20041;-66
2022/01/08 05:43:10;;;;;;;20.08;8.13;;;0.70;99.90;;;;;;5034746;28;20064;-67
2022/01/08 05:45:35;;;;;;;14.60;7.32;;;0.70;99.90;;;;;;5015481;28;20037;-66
2022/01/08 05:48:01;;;;;;;19.17;7.53;;;0.80;99.90;;;;;;5015359;28;20033;-66
2022/01/08 05:50:26;;;;;;;20.00;8.55;;;0.70;99.90;;;;;;5036639;28;20041;-66
2022/01/08 05:52:52;;;;;;;20.08;8.13;;;0.80;99.90;;;;;;5047161;28;20494;-66
2022/01/08 05:55:17;;;;;;;22.73;8.55;;;0.70;99.90;;;;;;5048076;28;20076;-66
2022/01/08 05:57:43;;;;;;;19.27;7.50;;;0.60;99.90;;;;;;5028689;28;20042;-67
2022/01/08 06:00:09;;;;;;;18.02;7.88;;;0.60;99.90;;;;;;5043795;28;20397;-66
2022/01/08 06:02:36;;;;;;;17.33;7.72;;;0.50;99.90;;;;;;5033015;28;20396;-66
2022/01/08 06:05:03;;;;;;;19.83;8.15;;;0.50;99.90;;;;;;5026689;28;20184;-65
2022/01/08 06:07:28;;;;;;;27.02;8.38;;;0.60;99.90;;;;;;5030408;28;20075;-66
2022/01/08 06:09:54;;;;;;;19.45;8.20;;;0.60;99.90;;;;;;5031604;28;20073;-67
2022/01/08 06:12:20;;;;;;;19.35;8.02;;;0.60;99.90;;;;;;5018522;28;20029;-65
2022/01/08 06:14:45;;;;;;;19.30;8.00;;;0.60;99.90;;;;;;5027832;28;20048;-66
2022/01/08 06:17:11;;;;;;;16.92;8.07;;;0.60;99.90;;;;;;5013072;28;20053;-67
2022/01/08 06:19:37;;;;;;;23.08;7.88;;;0.60;99.90;;;;;;5034345;28;20045;-67
2022/01/08 06:22:03;;;;;;;17.48;7.85;;;0.60;99.90;;;;;;5040670;28;20041;-66
2022/01/08 06:24:28;;;;;;;19.23;8.10;;;0.50;99.90;;;;;;5035628;28;20095;-66
2022/01/08 06:26:54;;;;;;;22.50;7.68;;;0.60;99.90;;;;;;5039086;28;20044;-67
2022/01/08 06:29:20;;;;;;;14.18;7.28;;;0.60;99.90;;;;;;5043671;28;20057;-64
2022/01/08 06:31:45;;;;;;;20.75;9.15;;;0.60;99.90;;;;;;5034620;28;20034;-66
2022/01/08 06:34:11;;;;;;;18.38;8.48;;;0.60;99.90;;;;;;5035000;28;20037;-66
2022/01/08 06:36:37;;;;;;;18.45;8.18;;;0.60;99.90;;;;;;5046253;28;20377;-67
2022/01/08 06:39:03;;;;;;;16.38;7.57;;;0.50;99.90;;;;;;5041491;28;20050;-66
2022/01/08 06:41:29;;;;;;;20.88;8.10;;;0.50;99.90;;;;;;5036515;28;20045;-66
2022/01/08 06:43:56;;;;;;;20.38;7.93;;;0.50;99.90;;;;;;5015290;28;20040;-67
2022/01/08 06:46:22;;;;;;;21.73;7.78;;;0.60;99.90;;;;;;5047167;28;20041;-67
2022/01/08 06:48:47;;;;;;;13.68;6.53;;;0.50;99.90;;;;;;5044161;28;20063;-66
2022/01/08 06:51:13;;;;;;;20.45;7.53;;;0.50;99.90;;;;;;5023579;28;20098;-66
2022/01/08 06:53:39;;;;;;;19.65;7.72;;;0.50;99.90;;;;;;5028873;28;20037;-67
2022/01/08 06:56:05;;;;;;;16.83;6.93;;;0.50;99.90;;;;;;5042138;28;20096;-66
2022/01/08 06:58:30;;;;;;;18.40;8.13;;;0.50;99.90;;;;;;5039302;28;20052;-67
2022/01/08 07:00:56;;;;;;;19.25;6.78;;;0.40;99.90;;;;;;5035910;28;20042;-66
2022/01/08 07:03:22;;;;;;;13.48;6.70;;;0.50;99.90;;;;;;5049148;28;20049;-67
2022/01/08 07:05:48;;;;;;;15.13;6.93;;;0.40;99.90;;;;;;5036318;28;20040;-66
2022/01/08 07:08:14;;;;;;;16.20;7.13;;;0.40;99.90;;;;;;5029743;28;20424;-67
2022/01/08 07:10:40;;;;;;;14.80;7.40;;;0.50;99.90;;;;;;5029155;28;20429;-67
2022/01/08 07:13:06;;;;;;;16.50;7.22;;;0.40;99.90;;;;;;5047416;28;20498;-66
2022/01/08 07:15:31;;;;;;;16.50;6.75;;;0.50;99.90;;;;;;5027865;28;20068;-66
2022/01/08 07:17:57;;;;;;;21.13;6.93;;;0.40;99.90;;;;;;5028621;28;20512;-66
2022/01/08 07:20:23;;;;;;;16.02;6.22;;;0.50;99.90;;;;;;5037490;28;20053;-66
2022/01/08 07:22:49;;;;;;;16.27;7.32;;;0.50;99.90;;;;;;5031556;28;20045;-66
2022/01/08 07:25:15;;;;;;;13.02;6.55;;;0.40;99.90;;;;;;5042861;28;20065;-66
2022/01/08 07:27:40;;;;;;;15.05;6.20;;;0.30;99.90;;;;;;5028368;28;20481;-66
2022/01/08 07:30:07;;;;;;;15.60;6.50;;;0.40;99.90;;;;;;5029052;28;20045;-66
2022/01/08 07:32:42;;;;;;;18.75;7.53;;;0.40;99.90;;;;;;5028934;28;20057;-66
2022/01/08 07:35:10;;;;;;;20.13;7.75;;;0.30;99.90;;;;;;5040143;28;20039;-66
2022/01/08 07:37:35;;;;;;;14.43;6.85;;;0.40;99.90;;;;;;5039758;28;20059;-65
2022/01/08 07:40:01;;;;;;;17.35;7.57;;;0.40;99.90;;;;;;5047084;28;20127;-67
2022/01/08 07:42:27;;;;;;;14.90;7.20;;;0.40;99.90;;;;;;5041427;28;20073;-67
2022/01/08 07:44:52;;;;;;;17.80;7.30;;;0.40;99.90;;;;;;5026646;28;20041;-69
2022/01/08 07:47:18;;;;;;;17.00;6.97;;;0.40;99.90;;;;;;5030414;28;20037;-66
2022/01/08 07:49:43;;;;;;;19.85;7.32;;;0.30;99.90;;;;;;5037224;28;20041;-67
2022/01/08 07:52:09;;;;;;;17.40;6.80;;;0.30;99.90;;;;;;5037878;28;20064;-67
2022/01/08 07:54:35;;;;;;;14.85;6.82;;;0.30;99.90;;;;;;5049240;28;20040;-66
2022/01/08 07:57:00;;;;;;;17.80;6.75;;;0.40;99.90;;;;;;5039330;28;20112;-66
2022/01/08 07:59:26;;;;;;;16.95;7.38;;;0.40;99.90;;;;;;5048238;28;20052;-67
2022/01/08 08:01:52;;;;;;;19.17;7.30;;;0.40;99.90;;;;;;5048488;28;20056;-66
2022/01/08 08:04:17;;;;;;;16.60;6.53;;;0.50;99.90;;;;;;5041818;28;20432;-65
2022/01/08 08:06:47;;;;;;;14.18;6.88;;;0.50;99.90;;;;;;5038018;28;20029;-66
2022/01/08 08:09:13;;;;;;;13.73;7.30;;;0.50;99.90;;;;;;5030951;28;20429;-65
2022/01/08 08:11:39;;;;;;;16.52;6.53;;;0.50;99.90;;;;;;5015635;28;20076;-67
2022/01/08 08:14:05;;;;;;;17.40;6.45;;;0.50;99.90;;;;;;5036370;28;20056;-66
2022/01/08 08:16:30;;;;;;;16.70;6.93;;;0.50;99.90;;;;;;5029728;28;20100;-67
2022/01/08 08:18:56;;;;;;;15.55;6.70;;;0.50;99.90;;;;;;5034492;28;20111;-66
2022/01/08 08:21:21;;;;;;;16.25;6.78;;;0.50;99.90;;;;;;5035152;28;20082;-67
2022/01/08 08:23:47;;;;;;;15.68;6.45;;;0.60;99.90;;;;;;5030282;28;20049;-67
2022/01/08 08:26:12;;;;;;;16.75;6.68;;;0.50;99.90;;;;;;5044080;28;20079;-66
2022/01/08 08:28:38;;;;;;;24.00;7.13;;;0.60;99.90;;;;;;5046481;28;20449;-67
2022/01/08 08:31:04;;;;;;;16.23;5.85;;;0.60;99.90;;;;;;5032366;28;20052;-66
2022/01/08 08:33:29;;;;;;;18.20;6.18;;;0.60;99.90;;;;;;5030143;28;20044;-67
2022/01/08 08:35:55;;;;;;;13.20;6.20;;;0.60;99.90;;;;;;5033259;28;20121;-67
2022/01/08 08:38:20;;;;;;;10.70;5.70;;;0.70;99.90;;;;;;5040602;28;20049;-67
2022/01/08 08:40:46;;;;;;;17.83;6.05;;;0.70;99.90;;;;;;5030454;28;20033;-67
2022/01/08 08:43:12;;;;;;;13.52;5.88;;;0.70;99.90;;;;;;5033802;28;20060;-68
2022/01/08 08:45:40;;;;;;;12.93;6.38;;;0.90;99.90;;;;;;5016926;28;20493;-68
2022/01/08 08:48:05;;;;;;;17.63;6.72;;;0.90;99.90;;;;;;5044094;28;20063;-69
2022/01/08 08:50:31;;;;;;;17.27;5.93;;;0.90;99.90;;;;;;5034323;28;20481;-68
2022/01/08 08:52:57;;;;;;;13.88;6.32;;;0.90;99.90;;;;;;5039014;28;20033;-67
2022/01/08 08:55:22;;;;;;;11.98;6.10;;;0.90;99.90;;;;;;5043059;28;20507;-67
2022/01/08 08:57:48;;;;;;;14.10;6.25;;;1.00;99.90;;;;;;5028817;28;20029;-66
2022/01/08 09:00:14;;;;;;;15.70;6.20;;;1.10;99.90;;;;;;5023567;28;20125;-66
2022/01/08 09:02:40;;;;;;;15.23;6.07;;;1.10;99.90;;;;;;5021564;28;20077;-66
2022/01/08 09:05:06;;;;;;;10.98;5.45;;;1.00;99.90;;;;;;5016596;28;20033;-66
2022/01/08 09:07:34;;;;;;;15.73;5.55;;;1.10;99.90;;;;;;5034851;28;20045;-65
2022/01/08 09:10:00;;;;;;;14.60;6.55;;;1.10;99.90;;;;;;5030953;28;20029;-66
2022/01/08 09:12:25;;;;;;;12.60;5.93;;;1.10;99.90;;;;;;5040704;28;20496;-67
2022/01/08 09:14:51;;;;;;;12.32;5.20;;;1.10;99.90;;;;;;5029658;28;20485;-67
2022/01/08 09:17:20;;;;;;;9.73;5.38;;;1.10;99.90;;;;;;5034961;28;20135;-67
2022/01/08 09:19:46;;;;;;;15.47;6.20;;;1.10;99.90;;;;;;5029777;28;20052;-66
2022/01/08 09:22:12;;;;;;;13.80;5.30;;;1.20;99.90;;;;;;5045867;28;20042;-66
2022/01/08 09:24:38;;;;;;;17.58;6.32;;;1.30;99.90;;;;;;5040094;28;20400;-66
2022/01/08 09:27:04;;;;;;;15.60;6.28;;;1.20;99.90;;;;;;5046876;28;20041;-67
2022/01/08 09:29:29;;;;;;;10.55;6.40;;;1.30;99.90;;;;;;5030384;28;20033;-66
2022/01/08 09:31:56;;;;;;;12.30;5.75;;;1.30;99.90;;;;;;5047287;28;20040;-67
2022/01/08 09:34:21;;;;;;;12.95;5.88;;;1.30;99.90;;;;;;5035774;28;20047;-67
2022/01/08 09:36:48;;;;;;;12.40;6.25;;;1.40;99.90;;;;;;5047517;28;20040;-67
2022/01/08 09:39:14;;;;;;;17.23;6.57;;;1.40;99.90;;;;;;5019033;28;20041;-66
2022/01/08 09:41:40;;;;;;;14.45;6.35;;;1.40;99.90;;;;;;5046114;28;20053;-67
2022/01/08 09:44:06;;;;;;;12.38;6.22;;;1.40;99.90;;;;;;5046017;28;20072;-66
2022/01/08 09:46:32;;;;;;;13.85;7.15;;;1.40;99.90;;;;;;5034340;28;20081;-67
2022/01/08 09:48:57;;;;;;;14.82;6.70;;;1.50;99.90;;;;;;5051026;28;20067;-66
2022/01/08 09:51:24;;;;;;;16.00;6.60;;;1.50;99.90;;;;;;5046868;28;20079;-67
2022/01/08 09:53:49;;;;;;;11.65;6.85;;;1.50;99.90;;;;;;5051367;28;20087;-67
2022/01/08 09:56:15;;;;;;;16.15;6.32;;;1.50;99.90;;;;;;5038077;28;20077;-67
2022/01/08 09:58:41;;;;;;;15.57;6.70;;;1.50;99.90;;;;;;5045819;28;20046;-67
2022/01/08 10:01:28;;;;;;;13.32;6.22;;;1.50;99.90;;;;;;5031357;28;20385;-67
2022/01/08 10:03:54;;;;;;;15.00;6.90;;;1.50;99.90;;;;;;5019714;28;20045;-67
2022/01/08 10:06:25;;;;;;;13.68;7.18;;;1.50;99.90;;;;;;5038711;28;20095;-67
2022/01/08 10:08:51;;;;;;;16.48;7.30;;;1.50;99.90;;;;;;5042977;28;20091;-67
2022/01/08 10:11:17;;;;;;;15.43;7.35;;;1.60;99.90;;;;;;5032070;28;20532;-68
2022/01/08 10:13:45;;;;;;;17.83;7.28;;;1.60;99.90;;;;;;5050416;28;20143;-67
2022/01/08 10:18:59;;;;;;;15.35;7.43;;;1.60;99.90;;;;;;5034068;28;20136;-67
2022/01/08 10:21:27;;;;;;;20.33;8.35;;;1.70;99.90;;;;;;5039207;28;20037;-68
2022/01/08 10:23:55;;;;;;;17.70;8.15;;;1.70;99.90;;;;;;5047872;28;20060;-66
2022/01/08 10:26:30;;;;;;;23.85;10.20;;;1.70;99.90;;;;;;5029231;28;20079;-65
2022/01/08 10:28:59;;;;;;;19.55;9.13;;;1.70;99.90;;;;;;5024623;28;20044;-65
2022/01/08 10:31:39;;;;;;;21.83;8.50;;;1.70;99.90;;;;;;5038488;28;20041;-65
2022/01/08 10:34:13;;;;;;;16.50;7.65;;;1.70;99.90;;;;;;5033090;28;20040;-67
2022/01/08 10:36:45;;;;;;;19.00;9.27;;;1.70;99.90;;;;;;5039676;28;20048;-67
2022/01/08 10:39:32;;;;;;;17.38;8.30;;;1.80;99.90;;;;;;5033926;28;20048;-67
2022/01/08 10:42:08;;;;;;;19.80;8.73;;;1.80;99.90;;;;;;5012120;28;20094;-66
2022/01/08 10:44:34;;;;;;;18.98;8.18;;;1.80;99.90;;;;;;5014291;28;20117;-66
2022/01/08 10:47:01;;;;;;;25.23;9.25;;;1.80;99.90;;;;;;5027401;28;20177;-67
2022/01/08 10:49:35;;;;;;;13.35;7.82;;;1.80;99.90;;;;;;5021774;28;20094;-67
2022/01/08 10:52:07;;;;;;;20.90;8.77;;;2.00;99.90;;;;;;5025430;28;20075;-67
2022/01/08 10:54:38;;;;;;;19.50;9.27;;;2.00;99.90;;;;;;5034951;28;20468;-68
2022/01/08 10:57:07;;;;;;;21.20;10.32;;;2.00;99.90;;;;;;5010867;28;20052;-67
2022/01/08 10:59:35;;;;;;;20.50;10.18;;;2.10;99.90;;;;;;5016370;28;20032;-68
2022/01/08 11:02:03;;;;;;;19.50;9.38;;;2.10;99.90;;;;;;5048525;28;20119;-66
2022/01/08 11:04:40;;;;;;;20.83;9.40;;;2.20;99.90;;;;;;5038400;28;20041;-67
2022/01/08 11:07:15;;;;;;;18.90;9.07;;;2.20;99.90;;;;;;5032625;28;20041;-66
2022/01/08 11:09:43;;;;;;;18.92;9.23;;;2.20;99.90;;;;;;5045420;28;20041;-68
2022/01/08 11:12:13;;;;;;;18.48;8.95;;;2.20;99.90;;;;;;5035555;28;20120;-67
2022/01/08 11:15:01;;;;;;;;;;;2.20;99.90;;;;;;5033665;28;20053;-67
2022/01/08 11:17:30;;;;;;;17.17;9.13;;;2.20;99.90;;;;;;5036646;28;19936;-66
2022/01/08 11:20:01;;;;;;;18.30;9.77;;;2.20;99.90;;;;;;5030047;28;20041;-65
2022/01/08 11:22:29;;;;;;;21.63;9.80;;;2.20;99.90;;;;;;5016303;28;20405;-67
2022/01/08 11:24:57;;;;;;;17.85;9.82;;;2.10;99.90;;;;;;5029043;28;20052;-67
2022/01/08 11:27:42;;;;;;;21.80;10.57;;;2.10;99.90;;;;;;5040983;28;20041;-67
2022/01/08 11:30:26;;;;;;;23.33;10.23;;;2.10;99.90;;;;;;5042316;28;20055;-68
2022/01/08 11:32:56;;;;;;;20.05;9.02;;;2.20;99.90;;;;;;5043395;28;20446;-66
2022/01/08 11:35:24;;;;;;;18.40;10.70;;;2.20;99.90;;;;;;5040691;28;20120;-67
2022/01/08 11:37:51;;;;;;;19.38;10.65;;;2.20;99.90;;;;;;5034211;28;20397;-66
2022/01/08 11:40:19;;;;;;;19.27;10.52;;;2.30;99.90;;;;;;5035929;28;20107;-66
2022/01/08 11:42:46;;;;;;;19.90;10.88;;;2.30;99.90;;;;;;5037327;28;20060;-67
2022/01/08 11:45:21;;;;;;;20.10;11.30;;;2.40;99.90;;;;;;5030137;28;20143;-67
2022/01/08 11:47:51;;;;;;;20.45;10.13;;;2.40;99.90;;;;;;5013618;28;20077;-67
2022/01/08 11:50:28;;;;;;;24.43;11.03;;;2.40;99.90;;;;;;5027946;28;20034;-67
2022/01/08 11:53:18;;;;;;;16.60;9.13;;;2.40;99.90;;;;;;5026135;28;20342;-67
2022/01/08 11:55:45;;;;;;;;;;;2.50;99.90;;;;;;5027146;28;20064;-66
2022/01/08 11:58:25;;;;;;;16.15;9.65;;;2.50;99.90;;;;;;5032209;28;19923;-67
2022/01/08 12:00:57;;;;;;;20.60;9.85;;;2.60;99.90;;;;;;5029160;28;20037;-66
2022/01/08 12:03:40;;;;;;;19.63;10.07;;;2.60;99.90;;;;;;5032019;28;20073;-66
2022/01/08 12:06:37;;;;;;;19.83;9.93;;;2.60;99.90;;;;;;5034249;28;20135;-66
2022/01/08 12:09:26;;;;;;;21.33;9.43;;;2.70;99.90;;;;;;5014107;28;20037;-67
2022/01/08 12:11:55;;;;;;;25.17;10.60;;;2.70;99.90;;;;;;5031438;28;20692;-66
2022/01/08 12:14:22;;;;;;;18.65;10.35;;;2.80;99.90;;;;;;5028145;28;20037;-67
2022/01/08 12:16:50;;;;;;;19.05;11.15;;;2.80;99.90;;;;;;5013383;28;20052;-67
2022/01/08 12:19:37;;;;;;;21.70;11.35;;;2.80;99.90;;;;;;5030192;28;20064;-66
2022/01/08 12:22:20;;;;;;;21.17;11.55;;;2.80;99.90;;;;;;5056141;28;20686;-65
2022/01/08 12:24:51;;;;;;;25.63;12.73;;;2.80;99.90;;;;;;5030144;28;20046;-68
2022/01/08 12:27:34;;;;;;;20.95;12.82;;;2.80;99.90;;;;;;5011340;28;20361;-67
2022/01/08 12:30:22;;;;;;;25.17;14.20;;;2.90;99.90;;;;;;5042880;28;20069;-68
2022/01/08 12:33:11;;;;;;;24.65;15.38;;;2.80;99.90;;;;;;5021524;28;20049;-69
2022/01/08 12:35:38;;;;;;;24.85;15.13;;;2.90;99.90;;;;;;5025961;28;20591;-65
2022/01/08 12:38:21;;;;;;;31.02;14.93;;;2.90;99.90;;;;;;5018106;28;20166;-67
2022/01/08 12:40:50;;;;;;;31.25;16.10;;;2.90;99.90;;;;;;5044765;28;20037;-66
2022/01/08 12:43:20;;;;;;;27.83;16.15;;;2.90;99.90;;;;;;5047833;28;20440;-67
2022/01/08 12:45:48;;;;;;;30.75;16.65;;;2.90;99.90;;;;;;5026715;28;20045;-65
2022/01/08 12:48:14;;;;;;;31.48;16.52;;;2.90;99.90;;;;;;5047601;28;20537;-67
2022/01/08 12:50:43;;;;;;;32.00;16.00;;;2.90;99.90;;;;;;5029746;28;20385;-67
2022/01/08 12:53:15;;;;;;;31.90;17.10;;;2.90;99.90;;;;;;5041641;28;20065;-67
2022/01/08 12:55:43;;;;;;;29.95;16.25;;;2.90;99.90;;;;;;5028514;28;20159;-68
2022/01/08 12:58:19;;;;;;;30.08;17.45;;;2.90;99.90;;;;;;5031284;28;20138;-67
2022/01/08 13:01:10;;;;;;;29.45;15.45;;;2.90;99.90;;;;;;5046398;28;20049;-68
2022/01/08 13:03:44;;;;;;;29.73;15.82;;;2.90;99.90;;;;;;5044921;28;20129;-68
2022/01/08 13:06:10;;;;;;;30.88;15.57;;;2.80;99.90;;;;;;5030590;28;20095;-65
2022/01/08 13:08:36;;;;;;;29.52;16.42;;;2.90;99.90;;;;;;5047798;28;20037;-67
2022/01/08 13:11:08;;;;;;;31.73;16.92;;;2.80;99.90;;;;;;5050555;28;20492;-70
2022/01/08 13:13:45;;;;;;;37.70;17.67;;;2.80;99.90;;;;;;5046195;28;20049;-66
2022/01/08 13:16:28;;;;;;;32.60;18.45;;;2.80;99.90;;;;;;5036778;28;20405;-66
2022/01/08 13:18:55;;;;;;;33.85;16.48;;;2.80;99.90;;;;;;5026327;28;20060;-66